sensor_id;sensor_type;location;lat;lon;timestamp;P1;durP1;ratioP1;P2;durP2;ratioP2
20122;SDS011;10222;50.848;4.336;2024-01-25T00:00:03;29.87;;;4.80;;
20122;SDS011;10222;50.848;4.336;2024-01-25T00:02:29;31.93;;;4.83;;
20122;SDS011;10222;50.848;4.336;2024-01-25T00:04:55;27.97;;;5.80;;
20122;SDS011;10222;50.848;4.336;2024-01-25T00:07:21;24.27;;;4.87;;
20122;SDS011;10222;50.848;4.336;2024-01-25T00:09:47;30.27;;;5.93;;
20122;SDS011;10222;50.848;4.336;2024-01-25T00:12:13;26.80;;;6.00;;
20122;SDS011;10222;50.848;4.336;2024-01-25T00:14:39;35.77;;;5.17;;
20122;SDS011;10222;50.848;4.336;2024-01-25T00:17:05;42.90;;;5.03;;
20122;SDS011;10222;50.848;4.336;2024-01-25T00:19:31;29.20;;;5.90;;
20122;SDS011;10222;50.848;4.336;2024-01-25T00:21:57;22.30;;;4.53;;
20122;SDS011;10222;50.848;4.336;2024-01-25T00:24:23;30.33;;;4.90;;
20122;SDS011;10222;50.848;4.336;2024-01-25T00:26:49;27.57;;;5.43;;
20122;SDS011;10222;50.848;4.336;2024-01-25T00:29:15;32.90;;;4.50;;
20122;SDS011;10222;50.848;4.336;2024-01-25T00:31:41;23.53;;;4.73;;
20122;SDS011;10222;50.848;4.336;2024-01-25T00:34:07;39.40;;;6.37;;
20122;SDS011;10222;50.848;4.336;2024-01-25T00:36:33;27.63;;;5.83;;
20122;SDS011;10222;50.848;4.336;2024-01-25T00:38:59;34.90;;;4.83;;
20122;SDS011;10222;50.848;4.336;2024-01-25T00:41:25;24.57;;;4.53;;
20122;SDS011;10222;50.848;4.336;2024-01-25T00:43:51;26.73;;;5.30;;
20122;SDS011;10222;50.848;4.336;2024-01-25T00:46:17;27.43;;;4.77;;
20122;SDS011;10222;50.848;4.336;2024-01-25T00:48:43;33.83;;;4.63;;
20122;SDS011;10222;50.848;4.336;2024-01-25T00:51:12;33.90;;;4.63;;
20122;SDS011;10222;50.848;4.336;2024-01-25T00:53:40;30.37;;;5.53;;
20122;SDS011;10222;50.848;4.336;2024-01-25T00:56:06;27.80;;;5.50;;
20122;SDS011;10222;50.848;4.336;2024-01-25T00:58:32;35.77;;;5.20;;
20122;SDS011;10222;50.848;4.336;2024-01-25T01:00:58;25.03;;;4.37;;
20122;SDS011;10222;50.848;4.336;2024-01-25T01:03:24;31.07;;;5.47;;
20122;SDS011;10222;50.848;4.336;2024-01-25T01:05:50;28.40;;;4.70;;
20122;SDS011;10222;50.848;4.336;2024-01-25T01:08:16;20.33;;;4.73;;
20122;SDS011;10222;50.848;4.336;2024-01-25T01:10:43;30.63;;;5.77;;
20122;SDS011;10222;50.848;4.336;2024-01-25T01:13:09;35.00;;;4.77;;
20122;SDS011;10222;50.848;4.336;2024-01-25T01:15:34;28.27;;;4.70;;
20122;SDS011;10222;50.848;4.336;2024-01-25T01:18:01;24.87;;;5.20;;
20122;SDS011;10222;50.848;4.336;2024-01-25T01:20:26;31.47;;;4.90;;
20122;SDS011;10222;50.848;4.336;2024-01-25T01:22:52;27.93;;;5.13;;
20122;SDS011;10222;50.848;4.336;2024-01-25T01:25:19;28.50;;;6.23;;
20122;SDS011;10222;50.848;4.336;2024-01-25T01:27:45;29.00;;;4.60;;
20122;SDS011;10222;50.848;4.336;2024-01-25T01:30:11;28.50;;;4.57;;
20122;SDS011;10222;50.848;4.336;2024-01-25T01:32:37;23.90;;;4.63;;
20122;SDS011;10222;50.848;4.336;2024-01-25T01:35:03;29.17;;;4.37;;
20122;SDS011;10222;50.848;4.336;2024-01-25T01:37:29;21.50;;;4.17;;
20122;SDS011;10222;50.848;4.336;2024-01-25T01:39:55;27.83;;;4.77;;
20122;SDS011;10222;50.848;4.336;2024-01-25T01:42:23;30.23;;;5.17;;
20122;SDS011;10222;50.848;4.336;2024-01-25T01:44:49;28.30;;;4.30;;
20122;SDS011;10222;50.848;4.336;2024-01-25T01:47:15;26.13;;;5.40;;
20122;SDS011;10222;50.848;4.336;2024-01-25T01:49:42;25.20;;;4.00;;
20122;SDS011;10222;50.848;4.336;2024-01-25T01:52:08;37.20;;;4.73;;
20122;SDS011;10222;50.848;4.336;2024-01-25T01:54:34;37.03;;;5.87;;
20122;SDS011;10222;50.848;4.336;2024-01-25T01:57:00;28.83;;;5.43;;
20122;SDS011;10222;50.848;4.336;2024-01-25T01:59:27;23.20;;;4.70;;
20122;SDS011;10222;50.848;4.336;2024-01-25T02:01:54;36.20;;;5.57;;
20122;SDS011;10222;50.848;4.336;2024-01-25T02:04:20;20.83;;;4.40;;
20122;SDS011;10222;50.848;4.336;2024-01-25T02:06:46;29.63;;;5.67;;
20122;SDS011;10222;50.848;4.336;2024-01-25T02:09:12;28.63;;;5.23;;
20122;SDS011;10222;50.848;4.336;2024-01-25T02:11:38;28.67;;;4.50;;
20122;SDS011;10222;50.848;4.336;2024-01-25T02:14:04;24.87;;;5.33;;
20122;SDS011;10222;50.848;4.336;2024-01-25T02:16:31;28.97;;;5.17;;
20122;SDS011;10222;50.848;4.336;2024-01-25T02:18:57;20.90;;;3.07;;
20122;SDS011;10222;50.848;4.336;2024-01-25T02:21:23;27.63;;;4.00;;
20122;SDS011;10222;50.848;4.336;2024-01-25T02:23:49;25.27;;;4.73;;
20122;SDS011;10222;50.848;4.336;2024-01-25T02:26:15;16.47;;;3.20;;
20122;SDS011;10222;50.848;4.336;2024-01-25T02:28:41;23.27;;;4.40;;
20122;SDS011;10222;50.848;4.336;2024-01-25T02:31:07;22.70;;;4.10;;
20122;SDS011;10222;50.848;4.336;2024-01-25T02:33:33;26.63;;;5.37;;
20122;SDS011;10222;50.848;4.336;2024-01-25T02:35:59;23.00;;;4.00;;
20122;SDS011;10222;50.848;4.336;2024-01-25T02:38:25;22.73;;;3.90;;
20122;SDS011;10222;50.848;4.336;2024-01-25T02:40:52;23.73;;;4.50;;
20122;SDS011;10222;50.848;4.336;2024-01-25T02:43:18;33.23;;;4.80;;
20122;SDS011;10222;50.848;4.336;2024-01-25T02:45:45;32.30;;;4.50;;
20122;SDS011;10222;50.848;4.336;2024-01-25T02:48:11;23.33;;;4.23;;
20122;SDS011;10222;50.848;4.336;2024-01-25T02:50:37;32.17;;;4.43;;
20122;SDS011;10222;50.848;4.336;2024-01-25T02:53:03;27.33;;;4.97;;
20122;SDS011;10222;50.848;4.336;2024-01-25T02:55:29;28.67;;;5.30;;
20122;SDS011;10222;50.848;4.336;2024-01-25T02:57:55;26.13;;;3.80;;
20122;SDS011;10222;50.848;4.336;2024-01-25T03:00:21;22.30;;;4.23;;
20122;SDS011;10222;50.848;4.336;2024-01-25T03:02:47;23.93;;;4.60;;
20122;SDS011;10222;50.848;4.336;2024-01-25T03:05:13;30.37;;;5.13;;
20122;SDS011;10222;50.848;4.336;2024-01-25T03:07:39;25.23;;;3.90;;
20122;SDS011;10222;50.848;4.336;2024-01-25T03:10:05;16.67;;;4.00;;
20122;SDS011;10222;50.848;4.336;2024-01-25T03:12:32;18.00;;;2.63;;
20122;SDS011;10222;50.848;4.336;2024-01-25T03:14:57;23.90;;;4.40;;
20122;SDS011;10222;50.848;4.336;2024-01-25T03:17:23;26.63;;;4.57;;
20122;SDS011;10222;50.848;4.336;2024-01-25T03:19:50;20.50;;;4.40;;
20122;SDS011;10222;50.848;4.336;2024-01-25T03:22:16;22.50;;;4.13;;
20122;SDS011;10222;50.848;4.336;2024-01-25T03:24:42;15.60;;;3.10;;
20122;SDS011;10222;50.848;4.336;2024-01-25T03:27:08;27.27;;;4.20;;
20122;SDS011;10222;50.848;4.336;2024-01-25T03:29:40;21.80;;;4.37;;
20122;SDS011;10222;50.848;4.336;2024-01-25T03:32:06;24.63;;;4.93;;
20122;SDS011;10222;50.848;4.336;2024-01-25T03:34:32;23.20;;;3.83;;
20122;SDS011;10222;50.848;4.336;2024-01-25T03:36:58;21.40;;;3.97;;
20122;SDS011;10222;50.848;4.336;2024-01-25T03:39:24;30.50;;;4.10;;
20122;SDS011;10222;50.848;4.336;2024-01-25T03:41:50;22.37;;;4.53;;
20122;SDS011;10222;50.848;4.336;2024-01-25T03:44:16;27.37;;;4.93;;
20122;SDS011;10222;50.848;4.336;2024-01-25T03:46:42;33.63;;;4.77;;
20122;SDS011;10222;50.848;4.336;2024-01-25T03:49:08;37.43;;;5.07;;
20122;SDS011;10222;50.848;4.336;2024-01-25T03:51:34;24.43;;;3.90;;
20122;SDS011;10222;50.848;4.336;2024-01-25T03:54:00;23.73;;;4.47;;
20122;SDS011;10222;50.848;4.336;2024-01-25T03:56:26;25.37;;;4.03;;
20122;SDS011;10222;50.848;4.336;2024-01-25T03:58:52;16.37;;;4.23;;
20122;SDS011;10222;50.848;4.336;2024-01-25T04:01:18;19.57;;;3.33;;
20122;SDS011;10222;50.848;4.336;2024-01-25T04:03:45;20.47;;;4.30;;
20122;SDS011;10222;50.848;4.336;2024-01-25T04:06:11;29.37;;;5.43;;
20122;SDS011;10222;50.848;4.336;2024-01-25T04:08:37;28.03;;;4.53;;
20122;SDS011;10222;50.848;4.336;2024-01-25T04:11:03;22.13;;;5.30;;
20122;SDS011;10222;50.848;4.336;2024-01-25T04:13:29;30.10;;;4.50;;
20122;SDS011;10222;50.848;4.336;2024-01-25T04:15:55;31.37;;;5.17;;
20122;SDS011;10222;50.848;4.336;2024-01-25T04:18:21;24.57;;;3.90;;
20122;SDS011;10222;50.848;4.336;2024-01-25T04:20:47;23.20;;;4.57;;
20122;SDS011;10222;50.848;4.336;2024-01-25T04:23:15;26.23;;;5.10;;
20122;SDS011;10222;50.848;4.336;2024-01-25T04:25:41;22.10;;;4.27;;
20122;SDS011;10222;50.848;4.336;2024-01-25T04:28:07;35.10;;;4.63;;
20122;SDS011;10222;50.848;4.336;2024-01-25T04:30:33;33.73;;;5.13;;
20122;SDS011;10222;50.848;4.336;2024-01-25T04:32:59;25.87;;;4.60;;
20122;SDS011;10222;50.848;4.336;2024-01-25T04:35:25;21.70;;;4.47;;
20122;SDS011;10222;50.848;4.336;2024-01-25T04:37:51;14.23;;;3.10;;
20122;SDS011;10222;50.848;4.336;2024-01-25T04:40:17;21.37;;;3.73;;
20122;SDS011;10222;50.848;4.336;2024-01-25T04:42:44;23.07;;;4.07;;
20122;SDS011;10222;50.848;4.336;2024-01-25T04:45:10;29.63;;;4.63;;
20122;SDS011;10222;50.848;4.336;2024-01-25T04:47:37;27.87;;;4.53;;
20122;SDS011;10222;50.848;4.336;2024-01-25T04:50:04;22.03;;;4.43;;
20122;SDS011;10222;50.848;4.336;2024-01-25T04:52:30;22.70;;;4.47;;
20122;SDS011;10222;50.848;4.336;2024-01-25T04:54:56;20.37;;;4.20;;
20122;SDS011;10222;50.848;4.336;2024-01-25T04:57:22;18.27;;;5.43;;
20122;SDS011;10222;50.848;4.336;2024-01-25T04:59:48;18.23;;;4.50;;
20122;SDS011;10222;50.848;4.336;2024-01-25T05:02:14;23.87;;;4.00;;
20122;SDS011;10222;50.848;4.336;2024-01-25T05:04:40;23.20;;;4.37;;
20122;SDS011;10222;50.848;4.336;2024-01-25T05:07:06;17.90;;;3.20;;
20122;SDS011;10222;50.848;4.336;2024-01-25T05:09:32;19.40;;;3.63;;
20122;SDS011;10222;50.848;4.336;2024-01-25T05:11:58;27.67;;;4.97;;
20122;SDS011;10222;50.848;4.336;2024-01-25T05:14:27;21.03;;;4.27;;
20122;SDS011;10222;50.848;4.336;2024-01-25T05:16:52;22.13;;;4.13;;
20122;SDS011;10222;50.848;4.336;2024-01-25T05:19:18;27.87;;;4.63;;
20122;SDS011;10222;50.848;4.336;2024-01-25T05:21:44;24.50;;;4.90;;
20122;SDS011;10222;50.848;4.336;2024-01-25T05:24:11;26.67;;;4.43;;
20122;SDS011;10222;50.848;4.336;2024-01-25T05:26:37;21.03;;;4.33;;
20122;SDS011;10222;50.848;4.336;2024-01-25T05:29:03;24.93;;;4.80;;
20122;SDS011;10222;50.848;4.336;2024-01-25T05:31:29;21.23;;;3.33;;
20122;SDS011;10222;50.848;4.336;2024-01-25T05:33:55;21.10;;;3.83;;
20122;SDS011;10222;50.848;4.336;2024-01-25T05:36:21;26.27;;;4.37;;
20122;SDS011;10222;50.848;4.336;2024-01-25T05:38:47;29.63;;;4.13;;
20122;SDS011;10222;50.848;4.336;2024-01-25T05:41:13;30.07;;;5.20;;
20122;SDS011;10222;50.848;4.336;2024-01-25T05:43:39;31.20;;;4.23;;
20122;SDS011;10222;50.848;4.336;2024-01-25T05:46:05;23.37;;;4.13;;
20122;SDS011;10222;50.848;4.336;2024-01-25T05:48:31;25.90;;;5.00;;
20122;SDS011;10222;50.848;4.336;2024-01-25T05:50:57;25.57;;;3.83;;
20122;SDS011;10222;50.848;4.336;2024-01-25T05:53:23;31.57;;;4.60;;
20122;SDS011;10222;50.848;4.336;2024-01-25T05:55:49;24.43;;;3.80;;
20122;SDS011;10222;50.848;4.336;2024-01-25T05:58:15;18.37;;;4.50;;
20122;SDS011;10222;50.848;4.336;2024-01-25T06:00:42;30.30;;;4.17;;
20122;SDS011;10222;50.848;4.336;2024-01-25T06:03:08;26.33;;;4.60;;
20122;SDS011;10222;50.848;4.336;2024-01-25T06:05:34;33.37;;;5.80;;
20122;SDS011;10222;50.848;4.336;2024-01-25T06:08:00;23.60;;;4.27;;
20122;SDS011;10222;50.848;4.336;2024-01-25T06:10:26;37.67;;;6.00;;
20122;SDS011;10222;50.848;4.336;2024-01-25T06:12:52;21.03;;;4.47;;
20122;SDS011;10222;50.848;4.336;2024-01-25T06:15:18;33.23;;;5.50;;
20122;SDS011;10222;50.848;4.336;2024-01-25T06:17:44;27.80;;;4.63;;
20122;SDS011;10222;50.848;4.336;2024-01-25T06:20:10;28.17;;;5.20;;
20122;SDS011;10222;50.848;4.336;2024-01-25T06:22:36;24.03;;;4.70;;
20122;SDS011;10222;50.848;4.336;2024-01-25T06:25:02;27.90;;;4.53;;
20122;SDS011;10222;50.848;4.336;2024-01-25T06:27:31;22.17;;;4.30;;
20122;SDS011;10222;50.848;4.336;2024-01-25T06:29:57;26.47;;;5.07;;
20122;SDS011;10222;50.848;4.336;2024-01-25T06:32:23;31.13;;;4.47;;
20122;SDS011;10222;50.848;4.336;2024-01-25T06:34:49;26.83;;;5.00;;
20122;SDS011;10222;50.848;4.336;2024-01-25T06:37:15;25.40;;;4.83;;
20122;SDS011;10222;50.848;4.336;2024-01-25T06:39:43;22.27;;;4.70;;
20122;SDS011;10222;50.848;4.336;2024-01-25T06:42:09;25.73;;;4.57;;
20122;SDS011;10222;50.848;4.336;2024-01-25T06:44:35;31.00;;;5.43;;
20122;SDS011;10222;50.848;4.336;2024-01-25T06:47:01;26.13;;;4.80;;
20122;SDS011;10222;50.848;4.336;2024-01-25T06:49:27;38.10;;;5.90;;
20122;SDS011;10222;50.848;4.336;2024-01-25T06:51:53;23.93;;;4.83;;
20122;SDS011;10222;50.848;4.336;2024-01-25T06:54:19;39.27;;;5.60;;
20122;SDS011;10222;50.848;4.336;2024-01-25T06:56:45;27.90;;;5.17;;
20122;SDS011;10222;50.848;4.336;2024-01-25T06:59:11;22.80;;;6.30;;
20122;SDS011;10222;50.848;4.336;2024-01-25T07:01:37;37.10;;;6.80;;
20122;SDS011;10222;50.848;4.336;2024-01-25T07:04:03;39.73;;;6.57;;
20122;SDS011;10222;50.848;4.336;2024-01-25T07:06:29;32.57;;;6.57;;
20122;SDS011;10222;50.848;4.336;2024-01-25T07:08:56;26.60;;;6.87;;
20122;SDS011;10222;50.848;4.336;2024-01-25T07:11:22;30.73;;;7.03;;
20122;SDS011;10222;50.848;4.336;2024-01-25T07:13:48;34.43;;;6.53;;
20122;SDS011;10222;50.848;4.336;2024-01-25T07:16:14;24.87;;;6.43;;
20122;SDS011;10222;50.848;4.336;2024-01-25T07:18:40;28.00;;;7.00;;
20122;SDS011;10222;50.848;4.336;2024-01-25T07:21:06;27.83;;;6.90;;
20122;SDS011;10222;50.848;4.336;2024-01-25T07:23:33;32.97;;;8.07;;
20122;SDS011;10222;50.848;4.336;2024-01-25T07:25:59;44.80;;;8.03;;
20122;SDS011;10222;50.848;4.336;2024-01-25T07:28:25;34.77;;;8.63;;
20122;SDS011;10222;50.848;4.336;2024-01-25T07:30:51;34.87;;;9.07;;
20122;SDS011;10222;50.848;4.336;2024-01-25T07:33:17;29.07;;;7.60;;
20122;SDS011;10222;50.848;4.336;2024-01-25T07:35:43;29.90;;;9.37;;
20122;SDS011;10222;50.848;4.336;2024-01-25T07:38:13;35.93;;;7.57;;
20122;SDS011;10222;50.848;4.336;2024-01-25T07:40:39;33.47;;;8.27;;
20122;SDS011;10222;50.848;4.336;2024-01-25T07:43:05;34.67;;;9.40;;
20122;SDS011;10222;50.848;4.336;2024-01-25T07:45:31;26.13;;;7.40;;
20122;SDS011;10222;50.848;4.336;2024-01-25T07:47:57;28.60;;;7.83;;
20122;SDS011;10222;50.848;4.336;2024-01-25T07:50:23;25.23;;;8.03;;
20122;SDS011;10222;50.848;4.336;2024-01-25T07:52:49;36.60;;;8.10;;
20122;SDS011;10222;50.848;4.336;2024-01-25T07:55:18;27.27;;;7.80;;
20122;SDS011;10222;50.848;4.336;2024-01-25T07:57:44;25.77;;;7.57;;
20122;SDS011;10222;50.848;4.336;2024-01-25T08:00:10;31.13;;;8.00;;
20122;SDS011;10222;50.848;4.336;2024-01-25T08:02:37;28.47;;;7.83;;
20122;SDS011;10222;50.848;4.336;2024-01-25T08:05:06;32.57;;;8.57;;
20122;SDS011;10222;50.848;4.336;2024-01-25T08:07:32;25.73;;;7.53;;
20122;SDS011;10222;50.848;4.336;2024-01-25T08:09:59;30.70;;;9.83;;
20122;SDS011;10222;50.848;4.336;2024-01-25T08:12:25;29.27;;;8.07;;
20122;SDS011;10222;50.848;4.336;2024-01-25T08:14:51;23.63;;;8.37;;
20122;SDS011;10222;50.848;4.336;2024-01-25T08:17:17;33.10;;;8.30;;
20122;SDS011;10222;50.848;4.336;2024-01-25T08:19:44;29.60;;;8.63;;
20122;SDS011;10222;50.848;4.336;2024-01-25T08:22:11;16.77;;;6.40;;
20122;SDS011;10222;50.848;4.336;2024-01-25T08:24:38;22.97;;;8.33;;
20122;SDS011;10222;50.848;4.336;2024-01-25T08:27:04;30.10;;;7.73;;
20122;SDS011;10222;50.848;4.336;2024-01-25T08:29:30;23.03;;;7.93;;
20122;SDS011;10222;50.848;4.336;2024-01-25T08:31:56;24.23;;;7.23;;
20122;SDS011;10222;50.848;4.336;2024-01-25T08:34:22;30.23;;;8.17;;
20122;SDS011;10222;50.848;4.336;2024-01-25T08:36:48;25.47;;;7.57;;
20122;SDS011;10222;50.848;4.336;2024-01-25T08:39:14;23.67;;;8.00;;
20122;SDS011;10222;50.848;4.336;2024-01-25T08:41:41;28.13;;;8.53;;
20122;SDS011;10222;50.848;4.336;2024-01-25T08:44:07;24.07;;;9.37;;
20122;SDS011;10222;50.848;4.336;2024-01-25T08:46:33;28.43;;;8.87;;
20122;SDS011;10222;50.848;4.336;2024-01-25T08:48:59;26.40;;;7.47;;
20122;SDS011;10222;50.848;4.336;2024-01-25T08:51:26;20.70;;;8.37;;
20122;SDS011;10222;50.848;4.336;2024-01-25T08:53:52;28.67;;;9.00;;
20122;SDS011;10222;50.848;4.336;2024-01-25T08:56:18;20.20;;;6.93;;
20122;SDS011;10222;50.848;4.336;2024-01-25T08:58:44;20.87;;;7.90;;
20122;SDS011;10222;50.848;4.336;2024-01-25T09:01:10;28.70;;;7.83;;
20122;SDS011;10222;50.848;4.336;2024-01-25T09:03:36;22.17;;;7.57;;
20122;SDS011;10222;50.848;4.336;2024-01-25T09:06:02;26.90;;;7.23;;
20122;SDS011;10222;50.848;4.336;2024-01-25T09:08:31;23.37;;;7.73;;
20122;SDS011;10222;50.848;4.336;2024-01-25T09:10:57;21.33;;;7.67;;
20122;SDS011;10222;50.848;4.336;2024-01-25T09:13:23;23.60;;;7.33;;
20122;SDS011;10222;50.848;4.336;2024-01-25T09:15:49;27.80;;;7.23;;
20122;SDS011;10222;50.848;4.336;2024-01-25T09:18:15;18.40;;;6.90;;
20122;SDS011;10222;50.848;4.336;2024-01-25T09:20:41;22.40;;;7.83;;
20122;SDS011;10222;50.848;4.336;2024-01-25T09:23:12;20.20;;;6.83;;
20122;SDS011;10222;50.848;4.336;2024-01-25T09:25:39;18.97;;;7.00;;
20122;SDS011;10222;50.848;4.336;2024-01-25T09:28:06;27.07;;;7.90;;
20122;SDS011;10222;50.848;4.336;2024-01-25T09:30:32;21.63;;;7.70;;
20122;SDS011;10222;50.848;4.336;2024-01-25T09:32:59;33.50;;;9.07;;
20122;SDS011;10222;50.848;4.336;2024-01-25T09:35:25;27.30;;;8.20;;
20122;SDS011;10222;50.848;4.336;2024-01-25T09:37:51;27.23;;;8.83;;
20122;SDS011;10222;50.848;4.336;2024-01-25T09:40:18;25.93;;;10.13;;
20122;SDS011;10222;50.848;4.336;2024-01-25T09:42:46;32.03;;;9.50;;
20122;SDS011;10222;50.848;4.336;2024-01-25T09:45:13;34.73;;;9.63;;
20122;SDS011;10222;50.848;4.336;2024-01-25T09:47:42;40.10;;;10.70;;
20122;SDS011;10222;50.848;4.336;2024-01-25T09:50:08;37.67;;;11.57;;
20122;SDS011;10222;50.848;4.336;2024-01-25T09:52:35;30.70;;;10.73;;
20122;SDS011;10222;50.848;4.336;2024-01-25T09:55:01;31.77;;;10.60;;
20122;SDS011;10222;50.848;4.336;2024-01-25T09:57:28;36.83;;;11.77;;
20122;SDS011;10222;50.848;4.336;2024-01-25T09:59:54;42.37;;;13.00;;
20122;SDS011;10222;50.848;4.336;2024-01-25T10:02:20;45.93;;;12.93;;
20122;SDS011;10222;50.848;4.336;2024-01-25T10:04:50;45.27;;;13.10;;
20122;SDS011;10222;50.848;4.336;2024-01-25T10:07:39;42.93;;;12.33;;
20122;SDS011;10222;50.848;4.336;2024-01-25T10:10:06;35.73;;;10.77;;
20122;SDS011;10222;50.848;4.336;2024-01-25T10:12:32;37.27;;;13.47;;
20122;SDS011;10222;50.848;4.336;2024-01-25T10:14:58;41.57;;;12.03;;
20122;SDS011;10222;50.848;4.336;2024-01-25T10:17:24;35.33;;;12.43;;
20122;SDS011;10222;50.848;4.336;2024-01-25T10:19:50;37.40;;;12.27;;
20122;SDS011;10222;50.848;4.336;2024-01-25T10:22:16;32.87;;;11.13;;
20122;SDS011;10222;50.848;4.336;2024-01-25T10:24:42;39.33;;;12.20;;
20122;SDS011;10222;50.848;4.336;2024-01-25T10:27:08;29.73;;;11.23;;
20122;SDS011;10222;50.848;4.336;2024-01-25T10:29:34;36.80;;;10.87;;
20122;SDS011;10222;50.848;4.336;2024-01-25T10:32:03;36.73;;;10.87;;
20122;SDS011;10222;50.848;4.336;2024-01-25T10:34:31;39.63;;;10.63;;
20122;SDS011;10222;50.848;4.336;2024-01-25T10:36:57;46.20;;;11.87;;
20122;SDS011;10222;50.848;4.336;2024-01-25T10:39:24;32.57;;;11.40;;
20122;SDS011;10222;50.848;4.336;2024-01-25T10:41:50;44.60;;;11.63;;
20122;SDS011;10222;50.848;4.336;2024-01-25T10:44:17;33.07;;;10.53;;
20122;SDS011;10222;50.848;4.336;2024-01-25T10:46:46;29.33;;;10.43;;
20122;SDS011;10222;50.848;4.336;2024-01-25T10:49:12;44.17;;;10.97;;
20122;SDS011;10222;50.848;4.336;2024-01-25T10:51:39;28.03;;;8.87;;
20122;SDS011;10222;50.848;4.336;2024-01-25T10:54:07;30.63;;;9.23;;
20122;SDS011;10222;50.848;4.336;2024-01-25T10:56:34;35.37;;;9.00;;
20122;SDS011;10222;50.848;4.336;2024-01-25T10:59:00;27.43;;;9.37;;
20122;SDS011;10222;50.848;4.336;2024-01-25T11:01:27;31.13;;;9.47;;
20122;SDS011;10222;50.848;4.336;2024-01-25T11:03:53;30.50;;;8.53;;
20122;SDS011;10222;50.848;4.336;2024-01-25T11:06:20;25.67;;;7.70;;
20122;SDS011;10222;50.848;4.336;2024-01-25T11:08:47;23.50;;;7.17;;
20122;SDS011;10222;50.848;4.336;2024-01-25T11:11:14;33.73;;;8.67;;
20122;SDS011;10222;50.848;4.336;2024-01-25T11:13:40;28.57;;;7.90;;
20122;SDS011;10222;50.848;4.336;2024-01-25T11:16:17;27.13;;;7.40;;
20122;SDS011;10222;50.848;4.336;2024-01-25T11:18:56;18.90;;;7.13;;
20122;SDS011;10222;50.848;4.336;2024-01-25T11:24:15;20.63;;;7.00;;
20122;SDS011;10222;50.848;4.336;2024-01-25T11:26:45;22.10;;;7.07;;
20122;SDS011;10222;50.848;4.336;2024-01-25T11:29:17;20.57;;;6.57;;
20122;SDS011;10222;50.848;4.336;2024-01-25T11:31:45;20.27;;;6.23;;
20122;SDS011;10222;50.848;4.336;2024-01-25T11:34:11;17.53;;;5.93;;
20122;SDS011;10222;50.848;4.336;2024-01-25T11:36:38;19.30;;;6.77;;
20122;SDS011;10222;50.848;4.336;2024-01-25T11:39:04;25.50;;;7.93;;
20122;SDS011;10222;50.848;4.336;2024-01-25T11:41:32;28.67;;;7.40;;
20122;SDS011;10222;50.848;4.336;2024-01-25T11:43:58;20.83;;;6.47;;
20122;SDS011;10222;50.848;4.336;2024-01-25T11:46:23;27.77;;;7.27;;
20122;SDS011;10222;50.848;4.336;2024-01-25T11:48:50;23.67;;;7.00;;
20122;SDS011;10222;50.848;4.336;2024-01-25T11:51:17;20.70;;;6.73;;
20122;SDS011;10222;50.848;4.336;2024-01-25T11:53:43;19.83;;;6.73;;
20122;SDS011;10222;50.848;4.336;2024-01-25T11:56:10;18.40;;;6.67;;
20122;SDS011;10222;50.848;4.336;2024-01-25T11:58:37;20.40;;;6.60;;
20122;SDS011;10222;50.848;4.336;2024-01-25T12:01:03;27.07;;;7.10;;
20122;SDS011;10222;50.848;4.336;2024-01-25T12:03:32;20.97;;;6.77;;
20122;SDS011;10222;50.848;4.336;2024-01-25T12:05:59;21.57;;;6.77;;
20122;SDS011;10222;50.848;4.336;2024-01-25T12:08:25;24.63;;;5.90;;
20122;SDS011;10222;50.848;4.336;2024-01-25T12:11:01;19.83;;;6.00;;
20122;SDS011;10222;50.848;4.336;2024-01-25T12:13:28;27.30;;;6.10;;
20122;SDS011;10222;50.848;4.336;2024-01-25T12:15:57;21.37;;;6.93;;
20122;SDS011;10222;50.848;4.336;2024-01-25T12:18:23;25.83;;;6.77;;
20122;SDS011;10222;50.848;4.336;2024-01-25T12:20:50;19.50;;;6.73;;
20122;SDS011;10222;50.848;4.336;2024-01-25T12:23:16;18.03;;;6.17;;
20122;SDS011;10222;50.848;4.336;2024-01-25T12:25:42;17.17;;;6.53;;
20122;SDS011;10222;50.848;4.336;2024-01-25T12:28:09;24.03;;;7.00;;
20122;SDS011;10222;50.848;4.336;2024-01-25T12:30:35;24.47;;;7.30;;
20122;SDS011;10222;50.848;4.336;2024-01-25T12:33:01;24.37;;;6.57;;
20122;SDS011;10222;50.848;4.336;2024-01-25T12:35:27;22.27;;;6.47;;
20122;SDS011;10222;50.848;4.336;2024-01-25T12:37:53;23.50;;;7.83;;
20122;SDS011;10222;50.848;4.336;2024-01-25T12:40:19;23.17;;;8.30;;
20122;SDS011;10222;50.848;4.336;2024-01-25T12:42:45;32.87;;;8.53;;
20122;SDS011;10222;50.848;4.336;2024-01-25T12:45:11;24.47;;;7.67;;
20122;SDS011;10222;50.848;4.336;2024-01-25T12:47:37;17.90;;;6.90;;
20122;SDS011;10222;50.848;4.336;2024-01-25T12:50:03;18.50;;;7.10;;
20122;SDS011;10222;50.848;4.336;2024-01-25T12:52:29;18.60;;;7.20;;
20122;SDS011;10222;50.848;4.336;2024-01-25T12:54:55;17.77;;;6.87;;
20122;SDS011;10222;50.848;4.336;2024-01-25T12:57:21;16.23;;;6.57;;
20122;SDS011;10222;50.848;4.336;2024-01-25T12:59:47;11.77;;;6.07;;
20122;SDS011;10222;50.848;4.336;2024-01-25T13:02:14;13.30;;;5.60;;
20122;SDS011;10222;50.848;4.336;2024-01-25T13:04:40;12.63;;;6.00;;
20122;SDS011;10222;50.848;4.336;2024-01-25T13:07:06;12.00;;;5.50;;
20122;SDS011;10222;50.848;4.336;2024-01-25T13:09:32;15.00;;;5.23;;
20122;SDS011;10222;50.848;4.336;2024-01-25T13:12:01;11.63;;;4.87;;
20122;SDS011;10222;50.848;4.336;2024-01-25T13:14:27;10.33;;;5.07;;
20122;SDS011;10222;50.848;4.336;2024-01-25T13:16:54;14.90;;;4.70;;
20122;SDS011;10222;50.848;4.336;2024-01-25T13:19:20;9.47;;;3.67;;
20122;SDS011;10222;50.848;4.336;2024-01-25T13:21:46;13.10;;;4.87;;
20122;SDS011;10222;50.848;4.336;2024-01-25T13:24:12;8.30;;;4.37;;
20122;SDS011;10222;50.848;4.336;2024-01-25T13:26:38;14.53;;;4.80;;
20122;SDS011;10222;50.848;4.336;2024-01-25T13:29:04;10.90;;;4.90;;
20122;SDS011;10222;50.848;4.336;2024-01-25T13:31:30;10.37;;;5.13;;
20122;SDS011;10222;50.848;4.336;2024-01-25T13:33:56;12.80;;;4.70;;
20122;SDS011;10222;50.848;4.336;2024-01-25T13:36:22;12.20;;;5.03;;
20122;SDS011;10222;50.848;4.336;2024-01-25T13:38:48;8.17;;;4.47;;
20122;SDS011;10222;50.848;4.336;2024-01-25T13:41:14;13.80;;;5.63;;
20122;SDS011;10222;50.848;4.336;2024-01-25T13:43:40;11.83;;;5.13;;
20122;SDS011;10222;50.848;4.336;2024-01-25T13:46:06;10.77;;;5.53;;
20122;SDS011;10222;50.848;4.336;2024-01-25T13:48:32;9.43;;;6.13;;
20122;SDS011;10222;50.848;4.336;2024-01-25T13:50:58;12.83;;;5.50;;
20122;SDS011;10222;50.848;4.336;2024-01-25T13:53:24;13.03;;;6.23;;
20122;SDS011;10222;50.848;4.336;2024-01-25T13:55:50;11.83;;;5.37;;
20122;SDS011;10222;50.848;4.336;2024-01-25T13:58:16;14.90;;;6.70;;
20122;SDS011;10222;50.848;4.336;2024-01-25T14:00:42;15.70;;;7.27;;
20122;SDS011;10222;50.848;4.336;2024-01-25T14:03:08;13.43;;;7.47;;
20122;SDS011;10222;50.848;4.336;2024-01-25T14:05:34;11.67;;;7.00;;
20122;SDS011;10222;50.848;4.336;2024-01-25T14:08:01;15.23;;;8.63;;
20122;SDS011;10222;50.848;4.336;2024-01-25T14:10:27;14.90;;;7.67;;
20122;SDS011;10222;50.848;4.336;2024-01-25T14:12:53;14.73;;;8.30;;
20122;SDS011;10222;50.848;4.336;2024-01-25T14:15:19;19.63;;;9.77;;
20122;SDS011;10222;50.848;4.336;2024-01-25T14:17:45;20.80;;;10.60;;
20122;SDS011;10222;50.848;4.336;2024-01-25T14:20:11;18.63;;;11.23;;
20122;SDS011;10222;50.848;4.336;2024-01-25T14:22:38;16.17;;;10.10;;
20122;SDS011;10222;50.848;4.336;2024-01-25T14:25:04;20.40;;;10.17;;
20122;SDS011;10222;50.848;4.336;2024-01-25T14:27:30;17.67;;;10.23;;
20122;SDS011;10222;50.848;4.336;2024-01-25T14:29:57;16.23;;;9.30;;